aviador You're here:

KMSV Decoded Metar

MONTICELLO in NY, USA
Report Time2018-04-24 17:56:00
UTC Time2018-04-24 18:28:39
Flight Rules vfr VFR
Wind160° at 14 Gusting to 21 kt
W.Decomp.*RWY 15: 13.0 kt HW 5.2 kt RCW
W.Rank160° ranks 15
Current wind is above 160° avg. (6.8)
Visibility9999 m
Phenomena:N/A
Clouds:N/A
Expected CloudBase > 7,200 ft AGL from Temp-Dew spread
CeilingNone
Temp17°C (ISA +5)
Dew Point-1°C (30% RH)
AAT9.9°C
QNH1025 hPa
Density Alt1,647 ft
Elevation1,404 ft
Report Wrong Elevation
Raw Report
KMSV 241756Z AUTO 16014G21KT 10SM CLR 17/M01 A3028 RMK AO2 SLP255
6//// T01721011 10172 20078 56024=

Extra information for KMSV:More info

Metar Taf Metar & Taf Last 4 Metars F.Rules Stats Wind Profile Meteogram Temp Stats Airport Information Weather charts Add Link Nearby VenuesMetar ALERT Operation Metar Decoded Social comments

AIRNAV info for KMSV